createdAt,value
2023-08-22T00:00:59.005Z,25.58
2023-08-22T00:03:25.551Z,25.51
2023-08-22T00:05:52.151Z,25.48
2023-08-22T00:08:18.876Z,25.49
2023-08-22T00:10:46.893Z,25.52
2023-08-22T00:13:13.464Z,25.55
2023-08-22T00:15:41.299Z,25.53
2023-08-22T00:18:08.134Z,25.47
2023-08-22T00:20:36.971Z,25.40
2023-08-22T00:23:05.005Z,25.28
2023-08-22T00:25:31.523Z,25.27
2023-08-22T00:27:58.031Z,25.24
2023-08-22T00:30:24.727Z,25.22
2023-08-22T00:32:51.375Z,25.20
2023-08-22T00:35:18.242Z,25.17
2023-08-22T00:37:44.729Z,25.17
2023-08-22T00:40:11.392Z,25.19
2023-08-22T00:42:37.885Z,25.14
2023-08-22T00:45:04.877Z,25.15
2023-08-22T00:47:31.655Z,25.09
2023-08-22T00:49:58.257Z,25.09
2023-08-22T00:52:25.407Z,25.08
2023-08-22T00:54:51.934Z,25.07
2023-08-22T00:57:18.750Z,25.05
2023-08-22T00:59:45.550Z,25.01
2023-08-22T01:02:12.090Z,25.00
2023-08-22T01:04:38.587Z,24.95
2023-08-22T01:07:21.055Z,24.90
2023-08-22T01:10:04.195Z,24.88
2023-08-22T01:12:41.165Z,24.86
2023-08-22T01:15:21.599Z,24.84
2023-08-22T01:17:50.657Z,24.80
2023-08-22T01:20:18.543Z,24.76
2023-08-22T01:22:45.127Z,24.76
2023-08-22T01:25:11.736Z,24.75
2023-08-22T01:28:15.657Z,24.76
2023-08-22T01:30:51.102Z,24.64
2023-08-22T01:33:25.474Z,24.64
2023-08-22T01:35:55.636Z,24.58
2023-08-22T01:38:24.530Z,24.56
2023-08-22T01:40:52.902Z,24.58
2023-08-22T01:43:22.764Z,24.57
2023-08-22T01:45:49.630Z,24.50
2023-08-22T01:48:16.144Z,24.45
2023-08-22T01:50:42.678Z,24.41
2023-08-22T01:53:09.213Z,24.35
2023-08-22T01:55:35.690Z,24.33
2023-08-22T01:58:02.226Z,24.31
2023-08-22T02:00:28.758Z,24.31
2023-08-22T02:02:55.341Z,24.31
2023-08-22T02:05:22.058Z,24.28
2023-08-22T02:07:48.562Z,24.28
2023-08-22T02:10:15.326Z,24.25
2023-08-22T02:12:41.973Z,24.23
2023-08-22T02:15:08.648Z,24.22
2023-08-22T02:17:35.443Z,24.20
2023-08-22T02:20:02.181Z,24.19
2023-08-22T02:22:28.949Z,24.17
2023-08-22T02:24:55.554Z,24.18
2023-08-22T02:27:22.519Z,24.14
2023-08-22T02:29:49.191Z,24.01
2023-08-22T02:32:15.878Z,23.97
2023-08-22T02:34:42.430Z,23.94
2023-08-22T02:37:09.156Z,23.93
2023-08-22T02:39:35.697Z,23.93
2023-08-22T02:42:02.168Z,23.93
2023-08-22T02:44:28.719Z,23.87
2023-08-22T02:46:55.218Z,23.86
2023-08-22T02:49:21.680Z,23.91
2023-08-22T02:51:48.205Z,23.92
2023-08-22T02:54:14.699Z,23.89
2023-08-22T02:56:41.154Z,23.87
2023-08-22T02:59:07.923Z,23.84
2023-08-22T03:01:34.493Z,23.86
2023-08-22T03:04:01.492Z,23.80
2023-08-22T03:06:28.090Z,23.78
2023-08-22T03:08:54.641Z,23.80
2023-08-22T03:11:22.329Z,23.76
2023-08-22T03:13:49.924Z,23.69
2023-08-22T03:16:16.470Z,23.75
2023-08-22T03:18:44.169Z,23.77
2023-08-22T03:21:10.724Z,23.79
2023-08-22T03:23:37.374Z,23.77
2023-08-22T03:26:04.220Z,23.77
2023-08-22T03:28:33.082Z,23.75
2023-08-22T03:31:04.121Z,23.73
2023-08-22T03:33:31.654Z,23.70
2023-08-22T03:35:59.655Z,23.68
2023-08-22T03:38:27.022Z,23.65
2023-08-22T03:40:54.333Z,23.61
2023-08-22T03:43:21.065Z,23.57
2023-08-22T03:45:48.531Z,23.55
2023-08-22T03:48:15.971Z,23.54
2023-08-22T03:50:43.811Z,23.49
2023-08-22T03:53:11.382Z,23.46
2023-08-22T03:55:37.947Z,23.42
2023-08-22T03:58:04.589Z,23.40
2023-08-22T04:00:31.679Z,23.39
2023-08-22T04:02:58.927Z,23.32
2023-08-22T04:05:25.617Z,23.23
2023-08-22T04:07:52.859Z,23.25
2023-08-22T04:10:20.033Z,23.29
2023-08-22T04:12:46.964Z,23.29
2023-08-22T04:15:14.524Z,23.31
2023-08-22T04:17:44.210Z,23.29
2023-08-22T04:20:12.723Z,23.33
2023-08-22T04:22:43.980Z,23.32
2023-08-22T04:25:11.398Z,23.30
2023-08-22T04:27:39.428Z,23.27
2023-08-22T04:30:07.105Z,23.28
2023-08-22T04:32:33.810Z,23.31
2023-08-22T04:35:00.384Z,23.32
2023-08-22T04:37:26.894Z,23.33
2023-08-22T04:39:53.444Z,23.28
2023-08-22T04:42:20.056Z,23.32
2023-08-22T04:44:46.605Z,23.38
2023-08-22T04:47:13.308Z,23.41
2023-08-22T04:49:39.804Z,23.43
2023-08-22T04:52:06.697Z,23.49
2023-08-22T04:54:33.251Z,23.53
2023-08-22T04:56:59.761Z,23.57
2023-08-22T04:59:26.850Z,23.60
2023-08-22T05:01:53.298Z,23.60
2023-08-22T05:04:19.806Z,23.70
2023-08-22T05:06:46.842Z,23.78
2023-08-22T05:09:15.360Z,23.78
2023-08-22T05:11:42.081Z,23.88
2023-08-22T05:14:09.664Z,23.92
2023-08-22T05:16:36.951Z,23.94
2023-08-22T05:19:03.766Z,24.04
2023-08-22T05:21:30.430Z,24.15
2023-08-22T05:23:56.936Z,24.27
2023-08-22T05:26:23.441Z,24.41
2023-08-22T05:28:50.095Z,24.51
2023-08-22T05:31:24.133Z,24.61
2023-08-22T05:33:51.928Z,24.65
2023-08-22T05:36:18.875Z,24.83
2023-08-22T05:38:45.221Z,24.74
2023-08-22T05:41:11.821Z,24.96
2023-08-22T05:43:38.307Z,25.07
2023-08-22T05:46:05.074Z,25.26
2023-08-22T05:48:31.612Z,25.42
2023-08-22T05:50:58.186Z,25.58
2023-08-22T05:53:25.122Z,25.74
2023-08-22T05:55:51.741Z,25.89
2023-08-22T05:58:18.253Z,26.01
2023-08-22T06:00:44.803Z,26.07
2023-08-22T06:03:11.352Z,26.22
2023-08-22T06:05:37.881Z,26.49
2023-08-22T06:08:04.845Z,26.78
2023-08-22T06:10:31.596Z,27.17
2023-08-22T06:12:58.114Z,27.47
2023-08-22T06:15:24.549Z,27.68
2023-08-22T06:17:51.192Z,27.90
2023-08-22T06:20:17.846Z,28.00
2023-08-22T06:22:44.354Z,28.09
2023-08-22T06:25:10.907Z,28.02
2023-08-22T06:27:37.420Z,28.13
2023-08-22T06:30:04.246Z,28.22
2023-08-22T06:32:30.819Z,28.44
2023-08-22T06:35:00.859Z,28.92
2023-08-22T06:37:27.510Z,29.33
2023-08-22T06:39:54.106Z,29.08
2023-08-22T06:42:20.632Z,29.34
2023-08-22T06:44:47.092Z,29.79
2023-08-22T06:47:13.627Z,30.43
2023-08-22T06:49:42.963Z,30.94
2023-08-22T06:52:09.470Z,31.39
2023-08-22T06:54:35.952Z,31.52
2023-08-22T06:57:02.341Z,31.68
2023-08-22T06:59:28.813Z,31.73
2023-08-22T07:01:55.299Z,31.78
2023-08-22T07:04:21.949Z,31.67
2023-08-22T07:06:48.654Z,31.76
2023-08-22T07:09:15.146Z,31.69
2023-08-22T07:11:41.770Z,31.46
2023-08-22T07:14:08.561Z,31.73
2023-08-22T07:16:37.644Z,31.89
2023-08-22T07:19:04.269Z,32.07
2023-08-22T07:21:30.778Z,32.22
2023-08-22T07:23:57.854Z,32.33
2023-08-22T07:26:24.473Z,32.14
2023-08-22T07:28:51.480Z,31.87
2023-08-22T07:31:18.066Z,32.13
2023-08-22T07:33:44.549Z,32.19
2023-08-22T07:36:21.463Z,32.43
2023-08-22T07:38:48.403Z,32.07
2023-08-22T07:41:14.975Z,31.86
2023-08-22T07:43:41.512Z,32.08
2023-08-22T07:46:08.189Z,32.31
2023-08-22T07:48:34.939Z,32.60
2023-08-22T07:51:01.404Z,32.57
2023-08-22T07:53:27.966Z,32.53
2023-08-22T07:55:54.559Z,32.33
2023-08-22T07:58:21.407Z,32.34
2023-08-22T08:00:49.191Z,32.81
2023-08-22T08:03:15.870Z,32.59
2023-08-22T08:05:42.586Z,32.52
2023-08-22T08:08:09.192Z,32.73
2023-08-22T08:10:37.356Z,33.16
2023-08-22T08:13:04.033Z,33.30
2023-08-22T08:15:31.070Z,33.46
2023-08-22T08:17:59.572Z,33.36
2023-08-22T08:20:26.894Z,33.45
2023-08-22T08:22:53.523Z,33.50
2023-08-22T08:25:19.970Z,33.77
2023-08-22T08:27:49.232Z,33.80
2023-08-22T08:30:17.409Z,33.45
2023-08-22T08:32:44.194Z,33.17
2023-08-22T08:35:11.251Z,33.41
2023-08-22T08:37:37.845Z,33.31
2023-08-22T08:40:08.356Z,33.17
2023-08-22T08:42:38.181Z,33.38
2023-08-22T08:45:06.027Z,33.31
2023-08-22T08:47:34.370Z,33.59
2023-08-22T08:50:07.413Z,33.76
2023-08-22T08:52:34.101Z,33.90
2023-08-22T08:55:01.268Z,34.08
2023-08-22T08:57:30.668Z,34.17
2023-08-22T08:59:57.261Z,34.13
2023-08-22T09:02:23.695Z,33.92
2023-08-22T09:04:51.200Z,33.97
2023-08-22T09:07:19.185Z,34.26
2023-08-22T09:09:45.666Z,34.28
2023-08-22T09:12:12.244Z,34.32
2023-08-22T09:14:44.900Z,34.40
2023-08-22T09:17:18.385Z,34.23
2023-08-22T09:19:45.859Z,34.47
2023-08-22T09:22:16.459Z,34.35
2023-08-22T09:24:54.648Z,34.44
2023-08-22T09:27:30.801Z,34.62
2023-08-22T09:30:02.251Z,34.61
2023-08-22T09:32:28.802Z,34.79
2023-08-22T09:35:01.737Z,34.99
2023-08-22T09:37:37.949Z,35.04
2023-08-22T09:40:14.711Z,34.62
2023-08-22T09:42:42.179Z,34.16
2023-08-22T09:45:10.204Z,33.85
2023-08-22T09:47:43.878Z,34.26
2023-08-22T09:50:12.980Z,34.72
2023-08-22T09:52:41.258Z,34.83
2023-08-22T09:55:08.489Z,34.65
2023-08-22T09:57:36.534Z,34.67
2023-08-22T10:00:05.398Z,34.52
2023-08-22T10:02:33.672Z,34.90
2023-08-22T10:05:01.665Z,35.09
2023-08-22T10:07:29.593Z,35.27
2023-08-22T10:09:56.266Z,35.14
2023-08-22T10:12:23.474Z,35.04
2023-08-22T10:14:59.167Z,35.22
2023-08-22T10:17:29.135Z,35.27
2023-08-22T10:20:05.947Z,35.34
2023-08-22T10:22:36.276Z,35.16
2023-08-22T10:25:07.412Z,35.48
2023-08-22T10:27:40.178Z,34.96
2023-08-22T10:30:16.736Z,35.01
2023-08-22T10:33:02.802Z,35.17
2023-08-22T10:35:29.520Z,34.99
2023-08-22T10:37:57.078Z,34.90
2023-08-22T10:40:29.073Z,34.72
2023-08-22T10:43:07.368Z,34.98
2023-08-22T10:45:43.829Z,35.53
2023-08-22T10:48:14.364Z,35.29
2023-08-22T10:50:42.781Z,35.52
2023-08-22T10:53:13.739Z,35.16
2023-08-22T10:55:40.261Z,35.46
2023-08-22T10:58:06.856Z,35.56
2023-08-22T11:00:34.274Z,35.25
2023-08-22T11:03:01.404Z,35.01
2023-08-22T11:05:31.388Z,35.28
2023-08-22T11:07:58.127Z,35.44
2023-08-22T11:10:26.286Z,34.98
2023-08-22T11:12:56.936Z,35.49
2023-08-22T11:15:23.631Z,36.10
2023-08-22T11:17:52.180Z,36.47
2023-08-22T11:20:21.916Z,36.46
2023-08-22T11:22:49.311Z,36.07
2023-08-22T11:25:24.703Z,35.72
2023-08-22T11:27:51.696Z,36.18
2023-08-22T11:30:20.002Z,36.55
2023-08-22T11:32:47.162Z,36.55
2023-08-22T11:35:14.166Z,36.83
2023-08-22T11:37:44.216Z,36.67
2023-08-22T11:40:15.552Z,36.78
2023-08-22T11:42:42.932Z,37.04
2023-08-22T11:45:24.047Z,37.39
2023-08-22T11:47:52.381Z,37.84
2023-08-22T11:50:25.203Z,38.11
2023-08-22T11:52:56.303Z,37.82
2023-08-22T11:55:27.624Z,37.42
2023-08-22T11:58:00.839Z,36.97
2023-08-22T12:00:28.872Z,36.61
2023-08-22T12:02:57.332Z,36.00
2023-08-22T12:05:36.158Z,35.60
2023-08-22T12:08:11.833Z,35.20
2023-08-22T12:10:42.437Z,34.87
2023-08-22T12:13:10.113Z,35.16
2023-08-22T12:15:37.381Z,35.87
2023-08-22T12:18:05.948Z,36.31
2023-08-22T12:20:33.376Z,36.63
2023-08-22T12:22:59.887Z,37.04
2023-08-22T12:25:26.527Z,37.08
2023-08-22T12:27:53.209Z,37.25
2023-08-22T12:30:19.705Z,37.36
2023-08-22T12:32:46.784Z,37.51
2023-08-22T12:35:13.944Z,37.75
2023-08-22T12:37:41.140Z,37.67
2023-08-22T12:40:13.683Z,37.62
2023-08-22T12:42:41.029Z,37.85
2023-08-22T12:45:11.259Z,38.22
2023-08-22T12:47:38.884Z,38.47
2023-08-22T12:50:06.879Z,38.02
2023-08-22T12:52:33.515Z,37.96
2023-08-22T12:55:01.847Z,38.11
2023-08-22T12:57:28.295Z,37.96
2023-08-22T12:59:54.863Z,37.96
2023-08-22T13:02:24.311Z,37.61
2023-08-22T13:04:51.378Z,37.81
2023-08-22T13:07:18.121Z,37.73
2023-08-22T13:09:44.577Z,37.90
2023-08-22T13:12:11.316Z,37.73
2023-08-22T13:14:37.770Z,37.45
2023-08-22T13:17:05.254Z,37.74
2023-08-22T13:19:31.939Z,38.15
2023-08-22T13:21:58.565Z,38.64
2023-08-22T13:24:25.168Z,38.92
2023-08-22T13:26:51.876Z,39.13
2023-08-22T13:29:18.627Z,38.90
2023-08-22T13:31:47.534Z,38.59
2023-08-22T13:34:14.219Z,38.21
2023-08-22T13:36:40.792Z,38.00
2023-08-22T13:39:07.213Z,38.09
2023-08-22T13:41:33.760Z,38.10
2023-08-22T13:44:00.252Z,38.30
2023-08-22T13:46:26.690Z,37.99
2023-08-22T13:48:53.195Z,37.66
2023-08-22T13:51:19.731Z,38.01
2023-08-22T13:53:46.407Z,38.36
2023-08-22T13:56:14.355Z,38.39
2023-08-22T13:58:41.110Z,38.32
2023-08-22T14:01:07.759Z,38.18
2023-08-22T14:03:34.337Z,38.20
2023-08-22T14:06:01.632Z,38.30
2023-08-22T14:08:28.179Z,38.44
2023-08-22T14:11:00.725Z,38.14
2023-08-22T14:13:27.889Z,37.85
2023-08-22T14:15:54.390Z,37.88
2023-08-22T14:18:21.035Z,36.88
2023-08-22T14:20:47.829Z,36.41
2023-08-22T14:23:14.321Z,36.60
2023-08-22T14:25:41.708Z,36.84
2023-08-22T14:28:08.398Z,37.29
2023-08-22T14:30:35.642Z,37.61
2023-08-22T14:33:02.878Z,37.51
2023-08-22T14:35:29.655Z,37.10
2023-08-22T14:37:56.256Z,36.94
2023-08-22T14:40:22.713Z,36.78
2023-08-22T14:42:49.235Z,36.90
2023-08-22T14:45:15.950Z,37.12
2023-08-22T14:47:42.532Z,37.40
2023-08-22T14:50:09.175Z,37.58
2023-08-22T14:52:35.936Z,37.83
2023-08-22T14:55:03.966Z,38.02
2023-08-22T14:57:30.633Z,38.10
2023-08-22T14:59:57.428Z,38.06
2023-08-22T15:02:23.975Z,38.12
2023-08-22T15:04:50.527Z,38.04
2023-08-22T15:07:17.208Z,38.14
2023-08-22T15:09:43.837Z,38.16
2023-08-22T15:12:10.292Z,37.94
2023-08-22T15:14:36.770Z,37.38
2023-08-22T15:17:03.313Z,36.65
2023-08-22T15:19:29.795Z,36.86
2023-08-22T15:21:56.303Z,37.12
2023-08-22T15:24:22.831Z,37.44
2023-08-22T15:26:49.761Z,37.59
2023-08-22T15:29:16.336Z,37.83
2023-08-22T15:31:45.036Z,38.01
2023-08-22T15:34:11.836Z,38.05
2023-08-22T15:36:38.305Z,37.73
2023-08-22T15:39:05.535Z,37.70
2023-08-22T15:41:32.083Z,37.67
2023-08-22T15:43:58.572Z,37.62
2023-08-22T15:46:25.183Z,37.56
2023-08-22T15:48:51.824Z,37.45
2023-08-22T15:51:18.413Z,37.35
2023-08-22T15:53:44.938Z,37.22
2023-08-22T15:56:11.535Z,37.08
2023-08-22T15:58:38.042Z,37.01
2023-08-22T16:01:04.693Z,37.17
2023-08-22T16:03:31.425Z,37.23
2023-08-22T16:05:58.944Z,37.22
2023-08-22T16:08:25.496Z,37.18
2023-08-22T16:10:52.038Z,37.17
2023-08-22T16:13:18.451Z,37.14
2023-08-22T16:15:49.439Z,37.09
2023-08-22T16:18:16.339Z,37.14
2023-08-22T16:20:44.428Z,37.05
2023-08-22T16:23:12.220Z,36.80
2023-08-22T16:25:42.420Z,36.56
2023-08-22T16:28:09.217Z,36.29
2023-08-22T16:30:35.840Z,36.28
2023-08-22T16:33:02.424Z,36.21
2023-08-22T16:35:29.054Z,36.11
2023-08-22T16:37:55.551Z,35.93
2023-08-22T16:40:22.117Z,35.71
2023-08-22T16:42:48.784Z,35.50
2023-08-22T16:45:15.529Z,35.18
2023-08-22T16:47:42.027Z,34.82
2023-08-22T16:50:09.186Z,34.59
2023-08-22T16:52:35.650Z,34.38
2023-08-22T16:55:04.418Z,34.24
2023-08-22T16:57:30.977Z,34.14
2023-08-22T16:59:57.516Z,34.15
2023-08-22T17:02:23.928Z,34.08
2023-08-22T17:04:50.342Z,34.00
2023-08-22T17:07:16.982Z,33.93
2023-08-22T17:09:43.480Z,33.81
2023-08-22T17:12:10.883Z,33.61
2023-08-22T17:14:37.467Z,33.54
2023-08-22T17:17:05.255Z,33.43
2023-08-22T17:19:32.038Z,33.26
2023-08-22T17:21:58.598Z,33.15
2023-08-22T17:24:25.034Z,33.07
2023-08-22T17:26:51.885Z,33.01
2023-08-22T17:29:18.537Z,32.87
2023-08-22T17:31:45.253Z,32.75
2023-08-22T17:34:11.856Z,32.66
2023-08-22T17:36:38.269Z,32.51
2023-08-22T17:39:05.183Z,32.46
2023-08-22T17:41:31.623Z,32.39
2023-08-22T17:43:59.332Z,32.30
2023-08-22T17:46:26.003Z,32.29
2023-08-22T17:48:52.582Z,32.15
2023-08-22T17:51:19.055Z,32.04
2023-08-22T17:53:45.836Z,32.03
2023-08-22T17:56:12.308Z,31.90
2023-08-22T17:58:38.957Z,31.90
2023-08-22T18:01:06.271Z,31.79
2023-08-22T18:03:32.863Z,31.73
2023-08-22T18:06:01.308Z,31.59
2023-08-22T18:08:28.720Z,31.52
2023-08-22T18:10:56.648Z,31.39
2023-08-22T18:13:23.687Z,31.35
2023-08-22T18:16:08.043Z,31.34
2023-08-22T18:18:40.787Z,31.11
2023-08-22T18:21:10.151Z,31.15
2023-08-22T18:23:37.616Z,31.14
2023-08-22T18:26:11.894Z,31.07
2023-08-22T18:28:39.270Z,30.99
2023-08-22T18:31:13.802Z,30.88
2023-08-22T18:33:40.322Z,30.77
2023-08-22T18:36:19.511Z,30.61
2023-08-22T18:38:46.737Z,30.37
2023-08-22T18:41:14.135Z,30.24
2023-08-22T18:43:44.208Z,30.15
2023-08-22T18:46:11.004Z,30.06
2023-08-22T18:48:37.521Z,29.99
2023-08-22T18:51:04.217Z,29.91
2023-08-22T18:53:30.659Z,29.75
2023-08-22T18:55:58.477Z,29.68
2023-08-22T18:58:27.857Z,29.61
2023-08-22T19:00:54.637Z,29.52
2023-08-22T19:03:21.593Z,29.45
2023-08-22T19:05:48.290Z,29.37
2023-08-22T19:08:15.010Z,29.30
2023-08-22T19:10:48.399Z,29.22
2023-08-22T19:13:14.997Z,29.20
2023-08-22T19:15:43.480Z,29.15
2023-08-22T19:18:11.158Z,29.11
2023-08-22T19:20:38.669Z,29.12
2023-08-22T19:23:06.177Z,29.09
2023-08-22T19:25:33.091Z,29.09
2023-08-22T19:27:59.735Z,29.08
2023-08-22T19:30:26.972Z,28.97
2023-08-22T19:33:11.336Z,28.92
2023-08-22T19:35:41.364Z,28.84
2023-08-22T19:38:07.974Z,28.79
2023-08-22T19:40:34.704Z,28.74
2023-08-22T19:43:02.261Z,28.64
2023-08-22T19:45:30.511Z,28.61
2023-08-22T19:47:57.039Z,28.61
2023-08-22T19:50:23.594Z,28.60
2023-08-22T21:47:34.105Z,27.60
2023-08-22T21:50:00.684Z,27.56
2023-08-22T21:52:27.450Z,27.53
2023-08-22T21:54:54.040Z,27.49
2023-08-22T21:57:20.557Z,27.44
2023-08-22T21:59:47.125Z,27.43
2023-08-22T22:02:13.812Z,27.38
2023-08-22T22:04:40.904Z,27.28
2023-08-22T22:07:07.391Z,27.21
2023-08-22T22:09:34.089Z,27.14
2023-08-22T22:12:00.638Z,27.05
2023-08-22T22:14:28.281Z,26.98
2023-08-22T22:16:54.977Z,26.87
2023-08-22T22:19:22.812Z,26.78
2023-08-22T22:21:49.468Z,26.70
2023-08-22T22:24:15.995Z,26.65
2023-08-22T22:26:42.519Z,26.60
2023-08-22T22:29:09.206Z,26.57
2023-08-22T22:31:35.830Z,26.55
2023-08-22T22:34:02.364Z,26.57
2023-08-22T22:36:28.852Z,26.58
2023-08-22T22:38:55.467Z,26.54
2023-08-22T22:41:22.004Z,26.45
2023-08-22T22:43:48.517Z,26.37
2023-08-22T22:46:15.397Z,26.29
2023-08-22T22:48:43.332Z,26.28
2023-08-22T22:51:09.952Z,26.24
2023-08-22T22:53:36.470Z,26.28
2023-08-22T22:56:03.033Z,26.29
2023-08-22T22:58:29.828Z,26.29
2023-08-22T23:00:56.342Z,26.30
2023-08-22T23:03:23.724Z,26.29
2023-08-22T23:05:50.313Z,26.26
2023-08-22T23:08:16.817Z,26.18
2023-08-22T23:10:43.864Z,26.09
2023-08-22T23:13:10.808Z,26.02
2023-08-22T23:15:37.288Z,26.00
2023-08-22T23:18:03.950Z,25.92
2023-08-22T23:20:30.498Z,25.86
2023-08-22T23:22:57.021Z,25.80
2023-08-22T23:25:23.557Z,25.79
2023-08-22T23:27:50.381Z,25.77
2023-08-22T23:30:17.360Z,25.72
2023-08-22T23:32:44.123Z,25.76
2023-08-22T23:35:10.796Z,25.74
2023-08-22T23:37:37.335Z,25.68
2023-08-22T23:40:25.095Z,25.62
2023-08-22T23:42:53.179Z,25.59
2023-08-22T23:45:23.750Z,25.58
2023-08-22T23:47:51.202Z,25.50
2023-08-22T23:50:18.135Z,25.45
2023-08-22T23:52:44.703Z,25.37
2023-08-22T23:55:11.474Z,25.31
2023-08-22T23:57:38.317Z,25.29
